Time;durP1;ratioP1;P1;durP2;ratioP2;P2;SDS_P1;SDS_P2;PMS_P1;PMS_P2;Temp;Humidity;BMP_temperature;BMP_pressure;BME280_temperature;BME280_humidity;BME280_pressure;Samples;Min_cycle;Max_cycle;Signal;HPM_P1;HPM_P2
2022/05/13 00:00:47;;;;;;;;;;;12.20;72.50;;;;;;5057335;28;19909;-63
2022/05/13 00:03:13;;;;;;;;;;;12.20;72.90;;;;;;5075342;28;19908;-63
2022/05/13 00:05:39;;;;;;;;;;;12.10;73.00;;;;;;5055907;28;19958;-63
2022/05/13 00:08:04;;;;;;;;;;;12.10;72.90;;;;;;5059505;28;20395;-63
2022/05/13 00:10:30;;;;;;;;;;;12.10;73.00;;;;;;5056479;28;20380;-63
2022/05/13 00:12:55;;;;;;;;;;;12.10;73.60;;;;;;5056463;28;19905;-63
2022/05/13 00:15:23;;;;;;;;;;;12.00;74.10;;;;;;5058764;28;19912;-63
2022/05/13 00:17:50;;;;;;;;;;;12.00;74.40;;;;;;5054649;28;19908;-63
2022/05/13 00:20:16;;;;;;;;;;;12.00;74.40;;;;;;5063340;28;19953;-63
2022/05/13 00:22:42;;;;;;;;;;;11.90;75.10;;;;;;5055481;28;19978;-63
2022/05/13 00:25:08;;;;;;;;;;;11.80;75.30;;;;;;5055215;28;19908;-63
2022/05/13 00:27:34;;;;;;;;;;;11.80;75.60;;;;;;5058102;28;19915;-63
2022/05/13 00:29:59;;;;;;;;;;;11.70;75.80;;;;;;5052487;28;19908;-63
2022/05/13 00:32:25;;;;;;;;;;;11.70;76.10;;;;;;5057983;28;20437;-63
2022/05/13 00:34:50;;;;;;;;;;;11.60;76.40;;;;;;5052453;28;20019;-63
2022/05/13 00:37:18;;;;;;;;;;;11.60;76.80;;;;;;5055176;28;20007;-63
2022/05/13 00:39:43;;;;;;;;;;;11.60;77.00;;;;;;5056470;28;19909;-63
2022/05/13 00:42:10;;;;;;;;;;;11.60;77.30;;;;;;5059567;28;19915;-63
2022/05/13 00:44:36;;;;;;;;;;;11.50;77.70;;;;;;5053112;28;19909;-63
2022/05/13 00:47:02;;;;;;;;;;;11.40;78.40;;;;;;5051119;28;20391;-63
2022/05/13 00:49:28;;;;;;;;;;;11.40;78.40;;;;;;5060883;28;19905;-63
2022/05/13 00:51:53;;;;;;;;;;;11.40;78.50;;;;;;5050808;28;19915;-63
2022/05/13 00:54:19;;;;;;;;;;;11.40;78.60;;;;;;5048181;28;19916;-63
2022/05/13 00:56:47;;;;;;;;;;;11.40;79.00;;;;;;5057319;28;19917;-63
2022/05/13 00:59:14;;;;;;;;;;;11.40;79.00;;;;;;5056857;28;20364;-63
2022/05/13 01:01:39;;;;;;;;;;;11.40;78.70;;;;;;5060528;28;19905;-63
2022/05/13 01:04:06;;;;;;;;;;;11.40;78.90;;;;;;5051971;28;19916;-63
2022/05/13 01:06:32;;;;;;;;;;;11.40;78.90;;;;;;5056688;28;19916;-63
2022/05/13 01:08:57;;;;;;;;;;;11.40;79.20;;;;;;5052723;28;19997;-63
2022/05/13 01:11:26;;;;;;;;;;;11.40;79.40;;;;;;5052793;28;19942;-63
2022/05/13 01:13:55;;;;;;;;;;;11.40;79.70;;;;;;5060606;28;19942;-63
2022/05/13 01:16:20;;;;;;;;;;;11.30;80.00;;;;;;5052195;28;20015;-63
2022/05/13 01:18:46;;;;;;;;;;;11.30;80.20;;;;;;5057201;28;20007;-63
2022/05/13 01:21:15;;;;;;;;;;;11.30;80.60;;;;;;5059988;28;19989;-63
2022/05/13 01:23:43;;;;;;;;;;;11.20;81.00;;;;;;5055941;28;19947;-63
2022/05/13 01:26:11;;;;;;;;;;;11.20;81.30;;;;;;5051665;28;19923;-63
2022/05/13 01:28:38;;;;;;;;;;;11.20;81.50;;;;;;5069710;28;20283;-63
2022/05/13 01:31:07;;;;;;;;;;;11.10;81.60;;;;;;5054601;28;19934;-63
2022/05/13 01:33:32;;;;;;;;;;;11.20;81.80;;;;;;5054765;28;19905;-63
2022/05/13 01:35:59;;;;;;;;;;;11.20;82.30;;;;;;5052539;28;19919;-63
2022/05/13 01:38:27;;;;;;;;;;;11.20;82.60;;;;;;5048914;28;19935;-63
2022/05/13 01:40:52;;;;;;;;;;;11.20;82.60;;;;;;5051429;28;19911;-63
2022/05/13 01:43:18;;;;;;;;;;;11.30;82.70;;;;;;5054138;28;19928;-63
2022/05/13 01:45:44;;;;;;;;;;;11.20;82.80;;;;;;5059665;28;19905;-63
2022/05/13 01:48:09;;;;;;;;;;;11.30;83.00;;;;;;5056871;28;20478;-63
2022/05/13 01:50:36;;;;;;;;;;;11.30;83.00;;;;;;5064906;28;19905;-63
2022/05/13 01:53:02;;;;;;;;;;;11.30;83.10;;;;;;5059925;28;19912;-63
2022/05/13 01:55:27;;;;;;;;;;;11.30;83.10;;;;;;5060111;28;19911;-63
2022/05/13 01:57:52;;;;;;;;;;;11.30;83.50;;;;;;5060349;28;19912;-63
2022/05/13 02:00:18;;;;;;;;;;;11.30;84.00;;;;;;5057259;28;20019;-63
2022/05/13 02:05:28;;;;;;;;;;;11.30;84.30;;;;;;5050204;28;19916;-63
2022/05/13 02:07:54;;;;;;;;;;;11.30;84.40;;;;;;5049629;28;19908;-63
2022/05/13 02:10:20;;;;;;;;;;;11.30;84.60;;;;;;5056528;28;19911;-63
2022/05/13 02:12:46;;;;;;;;;;;11.30;84.60;;;;;;5063244;28;20376;-63
2022/05/13 02:15:11;;;;;;;;;;;11.30;84.90;;;;;;5063412;28;19993;-63
2022/05/13 02:17:37;;;;;;;;;;;11.20;85.50;;;;;;5056725;28;20089;-63
2022/05/13 02:20:06;;;;;;;;;;;11.20;85.70;;;;;;5058328;28;19955;-63
2022/05/13 02:22:32;;;;;;;;;;;11.20;86.50;;;;;;5064028;28;19913;-63
2022/05/13 02:24:57;;;;;;;;;;;11.20;86.40;;;;;;5058544;28;20253;-63
2022/05/13 02:27:23;;;;;;;;;;;11.20;86.70;;;;;;5063565;28;19908;-63
2022/05/13 02:29:48;;;;;;;;;;;11.10;86.90;;;;;;5061005;28;19908;-63
2022/05/13 02:32:14;;;;;;;;;;;11.10;87.50;;;;;;5056459;28;20325;-63
2022/05/13 02:34:39;;;;;;;;;;;11.20;88.00;;;;;;5054802;28;20352;-63
2022/05/13 02:37:05;;;;;;;;;;;11.10;87.90;;;;;;5060051;28;19912;-63
2022/05/13 02:39:30;;;;;;;;;;;11.20;88.00;;;;;;5057823;28;20360;-63
2022/05/13 02:41:56;;;;;;;;;;;11.20;88.40;;;;;;5060031;28;20405;-63
2022/05/13 02:44:22;;;;;;;;;;;11.10;88.70;;;;;;5057644;28;19912;-63
2022/05/13 02:46:48;;;;;;;;;;;11.10;89.20;;;;;;5057366;28;20283;-63
2022/05/13 02:49:13;;;;;;;;;;;11.10;89.60;;;;;;5061966;28;20372;-63
2022/05/13 02:51:40;;;;;;;;;;;11.10;89.80;;;;;;5054972;28;19920;-63
2022/05/13 02:54:07;;;;;;;;;;;11.10;90.00;;;;;;5058037;28;19908;-63
2022/05/13 02:56:32;;;;;;;;;;;11.10;90.00;;;;;;5064316;28;19915;-63
2022/05/13 02:58:58;;;;;;;;;;;11.10;90.10;;;;;;5059922;28;19909;-63
2022/05/13 03:01:23;;;;;;;;;;;11.10;90.20;;;;;;5062899;28;19908;-64
2022/05/13 03:03:49;;;;;;;;;;;11.10;90.30;;;;;;5067489;28;19915;-63
2022/05/13 03:06:14;;;;;;;;;;;11.10;90.40;;;;;;5056334;28;19908;-63
2022/05/13 03:08:40;;;;;;;;;;;11.10;90.50;;;;;;5060243;28;19912;-63
2022/05/13 03:11:07;;;;;;;;;;;11.10;90.60;;;;;;5068620;28;19908;-63
2022/05/13 03:13:32;;;;;;;;;;;11.10;90.60;;;;;;5064116;28;19913;-63
2022/05/13 03:16:05;;;;;;;;;;;11.10;90.80;;;;;;5062066;28;19913;-63
2022/05/13 03:18:31;;;;;;;;;;;11.10;90.90;;;;;;5061062;28;19920;-63
2022/05/13 03:20:56;;;;;;;;;;;11.10;90.90;;;;;;5059979;28;19917;-63
2022/05/13 03:23:22;;;;;;;;;;;11.10;91.20;;;;;;5054468;28;19908;-63
2022/05/13 03:25:47;;;;;;;;;;;11.10;91.40;;;;;;5068276;28;19908;-63
2022/05/13 03:28:13;;;;;;;;;;;11.10;91.70;;;;;;5058204;28;19911;-63
2022/05/13 03:30:39;;;;;;;;;;;11.10;91.80;;;;;;5053060;28;19912;-63
2022/05/13 03:33:04;;;;;;;;;;;11.10;92.10;;;;;;5055624;28;19959;-63
2022/05/13 03:35:29;;;;;;;;;;;11.10;92.20;;;;;;5052364;28;19904;-63
2022/05/13 03:37:55;;;;;;;;;;;11.10;92.20;;;;;;5063146;28;19912;-63
2022/05/13 03:40:21;;;;;;;;;;;11.10;92.30;;;;;;5050678;28;19947;-63
2022/05/13 03:42:46;;;;;;;;;;;11.10;92.50;;;;;;5062163;28;19930;-63
2022/05/13 03:45:13;;;;;;;;;;;11.10;92.50;;;;;;5070673;28;19916;-63
2022/05/13 03:47:39;;;;;;;;;;;11.10;92.80;;;;;;5056961;28;19912;-63
2022/05/13 03:50:05;;;;;;;;;;;11.10;92.80;;;;;;5061493;28;19954;-63
2022/05/13 03:52:31;;;;;;;;;;;11.10;92.90;;;;;;5064196;28;19912;-63
2022/05/13 03:54:57;;;;;;;;;;;11.10;93.10;;;;;;5053340;28;19951;-63
2022/05/13 03:57:22;;;;;;;;;;;11.10;93.30;;;;;;5056307;28;19912;-63
2022/05/13 03:59:48;;;;;;;;;;;11.10;93.40;;;;;;5059418;28;19904;-63
2022/05/13 04:02:13;;;;;;;;;;;11.10;93.40;;;;;;5062789;28;19931;-63
2022/05/13 04:10:07;;;;;;;;;;;11.10;93.50;;;;;;5055935;28;20014;-63
2022/05/13 04:18:01;;;;;;;;;;;11.00;93.70;;;;;;5055604;28;19962;-63
2022/05/13 04:20:27;;;;;;;;;;;11.00;94.00;;;;;;5055427;28;19916;-63
2022/05/13 04:22:52;;;;;;;;;;;10.90;94.20;;;;;;5060122;28;19952;-63
2022/05/13 04:25:19;;;;;;;;;;;11.00;94.40;;;;;;5056570;28;19959;-63
2022/05/13 04:27:45;;;;;;;;;;;10.90;94.40;;;;;;5060665;28;19915;-63
2022/05/13 04:30:11;;;;;;;;;;;10.90;94.50;;;;;;5050247;28;19915;-63
2022/05/13 04:32:36;;;;;;;;;;;10.90;94.60;;;;;;5057614;28;20003;-63
2022/05/13 04:35:01;;;;;;;;;;;10.90;94.70;;;;;;5053509;28;19919;-63
2022/05/13 04:37:28;;;;;;;;;;;10.90;94.70;;;;;;5073345;28;19916;-63
2022/05/13 04:39:53;;;;;;;;;;;10.90;94.70;;;;;;5055317;28;19955;-63
2022/05/13 04:45:07;;;;;;;;;;;10.90;94.70;;;;;;5048326;28;20013;-63
2022/05/13 04:50:17;;;;;;;;;;;10.90;94.90;;;;;;5055998;28;19915;-63
2022/05/13 04:52:42;;;;;;;;;;;10.90;95.00;;;;;;5055483;28;20601;-63
2022/05/13 04:55:08;;;;;;;;;;;10.90;95.10;;;;;;5057371;28;19908;-63
2022/05/13 04:57:33;;;;;;;;;;;10.90;95.30;;;;;;5056814;28;19908;-63
2022/05/13 04:59:59;;;;;;;;;;;10.90;95.40;;;;;;5061356;28;19912;-63
2022/05/13 05:02:24;;;;;;;;;;;11.00;95.50;;;;;;5054567;28;20414;-63
2022/05/13 05:04:50;;;;;;;;;;;11.00;95.60;;;;;;5057507;28;19905;-63
2022/05/13 05:07:15;;;;;;;;;;;11.00;95.70;;;;;;5049149;28;19909;-63
2022/05/13 05:09:41;;;;;;;;;;;11.10;95.70;;;;;;5052033;28;20160;-63
2022/05/13 05:12:08;;;;;;;;;;;11.10;95.70;;;;;;5059956;28;20034;-63
2022/05/13 05:14:33;;;;;;;;;;;11.10;95.80;;;;;;5053832;28;20357;-63
2022/05/13 05:16:59;;;;;;;;;;;11.20;95.80;;;;;;5071970;28;19909;-63
2022/05/13 05:19:24;;;;;;;;;;;11.20;95.90;;;;;;5072304;28;19927;-63
2022/05/13 05:21:51;;;;;;;;;;;11.30;95.90;;;;;;5072939;28;19905;-63
2022/05/13 05:24:16;;;;;;;;;;;11.30;96.00;;;;;;5072960;28;19905;-63
2022/05/13 05:26:42;;;;;;;;;;;11.40;96.00;;;;;;5072911;28;20383;-63
2022/05/13 05:29:07;;;;;;;;;;;11.40;96.10;;;;;;5072845;28;20264;-63
2022/05/13 05:31:32;;;;;;;;;;;11.40;96.20;;;;;;5071632;28;19904;-63
2022/05/13 05:33:58;;;;;;;;;;;11.50;96.30;;;;;;5072699;28;19908;-63
2022/05/13 05:36:23;;;;;;;;;;;11.50;96.30;;;;;;5059003;28;19904;-63
2022/05/13 05:38:49;;;;;;;;;;;11.50;96.40;;;;;;5052673;28;19909;-63
2022/05/13 05:41:14;;;;;;;;;;;11.60;96.40;;;;;;5052678;28;19952;-63
2022/05/13 05:43:40;;;;;;;;;;;11.70;96.60;;;;;;5052718;28;19966;-63
2022/05/13 05:46:05;;;;;;;;;;;11.80;96.30;;;;;;5052467;28;19904;-63
2022/05/13 05:48:31;;;;;;;;;;;11.90;96.30;;;;;;5052486;28;19908;-63
2022/05/13 05:50:58;;;;;;;;;;;12.00;96.30;;;;;;5067977;28;19912;-63
2022/05/13 05:58:52;;;;;;;;;;;12.30;96.20;;;;;;5052556;28;19967;-63
2022/05/13 06:01:18;;;;;;;;;;;12.30;96.10;;;;;;5052423;28;19908;-63
2022/05/13 06:03:43;;;;;;;;;;;12.40;96.10;;;;;;5051175;28;19912;-63
2022/05/13 06:06:12;;;;;;;;;;;12.40;96.00;;;;;;5048910;28;19919;-63
2022/05/13 06:08:37;;;;;;;;;;;12.50;95.90;;;;;;5048322;28;19912;-63
2022/05/13 06:11:03;;;;;;;;;;;12.60;95.80;;;;;;5066721;28;19904;-63
2022/05/13 06:13:28;;;;;;;;;;;12.70;95.80;;;;;;5052266;28;20334;-63
2022/05/13 06:15:54;;;;;;;;;;;12.70;95.60;;;;;;5067613;28;19905;-63
2022/05/13 06:18:19;;;;;;;;;;;12.80;95.50;;;;;;5052184;28;19916;-63
2022/05/13 06:20:44;;;;;;;;;;;12.80;95.40;;;;;;5052049;28;19920;-64
2022/05/13 06:23:10;;;;;;;;;;;12.90;95.30;;;;;;5052261;28;20330;-63
2022/05/13 06:25:36;;;;;;;;;;;12.90;95.20;;;;;;5052296;28;20284;-63
2022/05/13 06:28:02;;;;;;;;;;;13.00;95.20;;;;;;5050944;28;19909;-63
2022/05/13 06:30:29;;;;;;;;;;;13.10;95.10;;;;;;5052104;28;20303;-63
2022/05/13 06:32:55;;;;;;;;;;;13.10;95.00;;;;;;5052064;28;19904;-63
2022/05/13 06:35:21;;;;;;;;;;;13.10;95.00;;;;;;5050055;28;19912;-63
2022/05/13 06:37:46;;;;;;;;;;;13.20;94.90;;;;;;5052085;28;19963;-63
2022/05/13 06:40:12;;;;;;;;;;;13.30;94.90;;;;;;5052434;28;19943;-63
2022/05/13 06:42:38;;;;;;;;;;;13.30;94.80;;;;;;5052167;28;19948;-63
2022/05/13 06:45:04;;;;;;;;;;;13.40;94.60;;;;;;5050155;28;19915;-63
2022/05/13 06:47:30;;;;;;;;;;;13.40;94.60;;;;;;5050906;28;19970;-63
2022/05/13 06:49:55;;;;;;;;;;;13.50;94.50;;;;;;5051497;28;20365;-63
2022/05/13 06:52:20;;;;;;;;;;;13.50;94.40;;;;;;5051121;28;19972;-63
2022/05/13 06:54:46;;;;;;;;;;;13.50;94.30;;;;;;5051611;28;19908;-63
2022/05/13 06:57:13;;;;;;;;;;;13.50;94.30;;;;;;5051321;28;20311;-63
2022/05/13 06:59:39;;;;;;;;;;;13.50;94.20;;;;;;5051111;28;19958;-63
2022/05/13 07:02:05;;;;;;;;;;;13.60;94.10;;;;;;5050135;28;19912;-63
2022/05/13 07:04:31;;;;;;;;;;;13.60;94.10;;;;;;5050598;28;20372;-63
2022/05/13 07:06:56;;;;;;;;;;;13.70;94.10;;;;;;5052697;28;20326;-63
2022/05/13 07:09:22;;;;;;;;;;;13.70;93.90;;;;;;5053952;28;20007;-63
2022/05/13 07:11:47;;;;;;;;;;;13.70;93.80;;;;;;5053717;28;19944;-63
2022/05/13 07:14:13;;;;;;;;;;;13.70;93.60;;;;;;5053403;28;20258;-63
2022/05/13 07:16:39;;;;;;;;;;;13.70;93.60;;;;;;5052283;28;20316;-63
2022/05/13 07:19:04;;;;;;;;;;;13.70;93.50;;;;;;5053456;28;19968;-62
2022/05/13 07:21:30;;;;;;;;;;;13.70;93.40;;;;;;5053571;28;21382;-63
2022/05/13 07:23:56;;;;;;;;;;;13.70;93.40;;;;;;5066500;28;19912;-63
2022/05/13 07:26:22;;;;;;;;;;;13.70;93.30;;;;;;5053367;28;20410;-63
2022/05/13 07:28:47;;;;;;;;;;;13.80;93.30;;;;;;5053400;28;19905;-63
2022/05/13 07:31:13;;;;;;;;;;;13.80;93.20;;;;;;5066416;28;19905;-62
2022/05/13 07:33:38;;;;;;;;;;;13.90;93.40;;;;;;5075179;28;19904;-63
2022/05/13 07:36:04;;;;;;;;;;;13.90;93.00;;;;;;5063356;28;19948;-63
2022/05/13 07:38:31;;;;;;;;;;;13.90;92.80;;;;;;5054549;28;19912;-62
2022/05/13 07:43:41;;;;;;;;;;;14.00;92.70;;;;;;5055039;28;19954;-62
2022/05/13 07:46:07;;;;;;;;;;;14.10;92.50;;;;;;5054046;28;19905;-62
2022/05/13 07:48:33;;;;;;;;;;;14.10;92.40;;;;;;5054562;28;19927;-62
2022/05/13 07:50:58;;;;;;;;;;;14.10;92.10;;;;;;5054617;28;20353;-62
2022/05/13 07:53:24;;;;;;;;;;;14.20;92.00;;;;;;5054477;28;20029;-62
2022/05/13 07:55:49;;;;;;;;;;;14.20;91.80;;;;;;5054410;28;19905;-62
2022/05/13 07:58:16;;;;;;;;;;;14.30;91.70;;;;;;5054297;28;19979;-62
2022/05/13 08:00:43;;;;;;;;;;;14.40;91.40;;;;;;5052821;28;19912;-62
2022/05/13 08:03:11;;;;;;;;;;;14.50;91.30;;;;;;5053159;28;19905;-62
2022/05/13 08:05:40;;;;;;;;;;;14.60;91.00;;;;;;5054269;28;19915;-62
2022/05/13 08:08:12;;;;;;;;;;;14.70;90.70;;;;;;5052983;28;19966;-62
2022/05/13 08:10:38;;;;;;;;;;;14.80;90.40;;;;;;5051280;28;20269;-62
2022/05/13 08:13:04;;;;;;;;;;;14.90;90.20;;;;;;5054068;28;19943;-62
2022/05/13 08:15:30;;;;;;;;;;;14.90;90.00;;;;;;5054073;28;19944;-62
2022/05/13 08:17:55;;;;;;;;;;;15.00;89.60;;;;;;5053358;28;19915;-62
2022/05/13 08:20:21;;;;;;;;;;;15.10;89.30;;;;;;5053996;28;19940;-62
2022/05/13 08:22:47;;;;;;;;;;;15.30;89.00;;;;;;5053748;28;19905;-63
2022/05/13 08:25:13;;;;;;;;;;;15.40;88.30;;;;;;5069098;28;19951;-62
2022/05/13 08:27:38;;;;;;;;;;;15.40;87.40;;;;;;5053718;28;20353;-62
2022/05/13 08:30:05;;;;;;;;;;;15.40;85.60;;;;;;5053777;28;20384;-62
2022/05/13 08:32:30;;;;;;;;;;;15.40;85.00;;;;;;5053720;28;19905;-62
2022/05/13 08:34:56;;;;;;;;;;;15.50;84.60;;;;;;5069390;28;20447;-62
2022/05/13 08:37:21;;;;;;;;;;;15.50;83.30;;;;;;5053343;28;19912;-62
2022/05/13 08:39:47;;;;;;;;;;;15.50;82.00;;;;;;5053419;28;19963;-62
2022/05/13 08:42:18;;;;;;;;;;;15.60;81.90;;;;;;5053559;28;19905;-62
2022/05/13 08:44:43;;;;;;;;;;;15.70;82.00;;;;;;5053531;28;19908;-62
2022/05/13 08:47:28;;;;;;;;;;;15.70;81.90;;;;;;5053496;28;19927;-62
2022/05/13 08:49:55;;;;;;;;;;;15.80;81.80;;;;;;5052841;28;19936;-62
2022/05/13 08:55:09;;;;;;;;;;;16.00;80.40;;;;;;5053006;28;19946;-62
2022/05/13 08:57:37;;;;;;;;;;;16.10;80.10;;;;;;5052161;28;19917;-63
2022/05/13 09:00:06;;;;;;;;;;;16.30;79.00;;;;;;5052485;28;19954;-62
2022/05/13 09:02:39;;;;;;;;;;;16.50;78.00;;;;;;5053082;28;19908;-62
2022/05/13 09:05:04;;;;;;;;;;;16.50;76.10;;;;;;5053148;28;20410;-62
2022/05/13 09:07:30;;;;;;;;;;;16.40;75.70;;;;;;5053029;28;20400;-63
2022/05/13 09:09:58;;;;;;;;;;;16.40;76.20;;;;;;5053066;28;20311;-63
2022/05/13 09:12:42;;;;;;;;;;;16.40;75.10;;;;;;5051168;28;19917;-62
2022/05/13 09:15:12;;;;;;;;;;;16.30;74.50;;;;;;5051375;28;20265;-62
2022/05/13 09:17:38;;;;;;;;;;;16.30;75.30;;;;;;5052310;28;19931;-62
2022/05/13 09:20:08;;;;;;;;;;;16.30;76.20;;;;;;5051003;28;20292;-62
2022/05/13 09:22:49;;;;;;;;;;;16.40;76.40;;;;;;5051314;28;19970;-63
2022/05/13 09:25:17;;;;;;;;;;;16.60;75.00;;;;;;5050891;28;19947;-63
2022/05/13 09:27:46;;;;;;;;;;;16.70;73.50;;;;;;5048142;28;20426;-63
2022/05/13 09:30:16;;;;;;;;;;;16.80;73.80;;;;;;5050181;28;19919;-63
2022/05/13 09:32:41;;;;;;;;;;;16.80;74.20;;;;;;5051122;28;19905;-62
2022/05/13 09:35:18;;;;;;;;;;;16.80;74.30;;;;;;5050519;28;19904;-63
2022/05/13 09:37:44;;;;;;;;;;;16.90;74.50;;;;;;5050714;28;19916;-62
2022/05/13 09:40:18;;;;;;;;;;;16.80;74.20;;;;;;5050658;28;19908;-63
2022/05/13 09:42:48;;;;;;;;;;;16.80;74.40;;;;;;5050864;28;19912;-63
2022/05/13 09:45:25;;;;;;;;;;;16.80;74.30;;;;;;5050764;28;19936;-63
2022/05/13 09:48:18;;;;;;;;;;;16.80;74.40;;;;;;5051101;28;19905;-63
2022/05/13 09:50:45;;;;;;;;;;;16.90;74.60;;;;;;5049535;28;20338;-63
2022/05/13 09:53:22;;;;;;;;;;;17.00;74.40;;;;;;5051012;28;20352;-62
2022/05/13 09:55:52;;;;;;;;;;;17.10;74.10;;;;;;5048366;28;19905;-63
2022/05/13 09:58:22;;;;;;;;;;;17.20;74.00;;;;;;5050712;28;20452;-63
2022/05/13 10:00:50;;;;;;;;;;;17.30;74.30;;;;;;5050816;28;19954;-63
2022/05/13 10:03:18;;;;;;;;;;;17.40;72.90;;;;;;5050878;28;19958;-63
2022/05/13 10:05:43;;;;;;;;;;;17.60;71.30;;;;;;5050572;28;20376;-63
2022/05/13 10:08:13;;;;;;;;;;;17.70;71.10;;;;;;5049521;28;19935;-63
2022/05/13 10:16:12;;;;;;;;;;;18.00;69.40;;;;;;5052256;28;19911;-63
2022/05/13 10:18:45;;;;;;;;;;;18.00;69.00;;;;;;5052319;28;19909;-62
2022/05/13 10:21:15;;;;;;;;;;;18.00;68.30;;;;;;5050582;28;19917;-62
2022/05/13 10:23:43;;;;;;;;;;;18.10;67.70;;;;;;5061123;28;20030;-63
2022/05/13 10:26:10;;;;;;;;;;;18.20;66.60;;;;;;5051893;28;20319;-63
2022/05/13 10:28:45;;;;;;;;;;;18.30;66.50;;;;;;5051095;28;20344;-63
2022/05/13 10:31:14;;;;;;;;;;;18.20;66.00;;;;;;5050458;28;20249;-62
2022/05/13 10:33:42;;;;;;;;;;;18.20;66.50;;;;;;5050914;28;19962;-63
2022/05/13 10:36:11;;;;;;;;;;;18.30;66.50;;;;;;5049229;28;19911;-63
2022/05/13 10:38:47;;;;;;;;;;;18.40;66.80;;;;;;5051199;28;20015;-63
2022/05/13 10:41:28;;;;;;;;;;;18.60;66.30;;;;;;5067306;28;19909;-63
2022/05/13 10:43:54;;;;;;;;;;;18.80;65.40;;;;;;5054077;28;19959;-63
2022/05/13 10:46:22;;;;;;;;;;;18.80;64.50;;;;;;5053944;28;19912;-62
2022/05/13 10:48:49;;;;;;;;;;;18.90;64.20;;;;;;5053799;28;20003;-63
2022/05/13 10:51:18;;;;;;;;;;;19.00;62.30;;;;;;5052114;28;20280;-63
2022/05/13 10:54:02;;;;;;;;;;;19.10;61.60;;;;;;5053805;28;20436;-62
2022/05/13 10:56:30;;;;;;;;;;;19.10;61.10;;;;;;5055338;28;19905;-62
2022/05/13 10:58:55;;;;;;;;;;;19.00;61.60;;;;;;5070962;28;19917;-62
2022/05/13 11:01:21;;;;;;;;;;;19.00;62.30;;;;;;5070741;28;19971;-63
2022/05/13 11:03:56;;;;;;;;;;;19.20;61.70;;;;;;5071042;28;19905;-64
2022/05/13 11:06:28;;;;;;;;;;;19.30;59.70;;;;;;5055297;28;19986;-62
2022/05/13 11:09:12;;;;;;;;;;;19.30;58.80;;;;;;5055516;28;19932;-62
2022/05/13 11:11:42;;;;;;;;;;;19.40;59.00;;;;;;5069278;28;20280;-62
2022/05/13 11:14:27;;;;;;;;;;;19.40;59.40;;;;;;5053426;28;19909;-63
2022/05/13 11:17:01;;;;;;;;;;;19.40;59.70;;;;;;5053930;28;20115;-62
2022/05/13 11:19:30;;;;;;;;;;;19.30;59.00;;;;;;5053223;28;19925;-63
2022/05/13 11:22:10;;;;;;;;;;;19.30;58.80;;;;;;5053972;28;19905;-63
2022/05/13 11:27:45;;;;;;;;;;;19.50;58.20;;;;;;5054931;28;19912;-62
2022/05/13 11:30:18;;;;;;;;;;;19.60;58.40;;;;;;5054962;28;19916;-63
2022/05/13 11:32:49;;;;;;;;;;;19.90;58.20;;;;;;5054950;28;20384;-63
2022/05/13 11:35:26;;;;;;;;;;;20.10;57.50;;;;;;5054709;28;19904;-62
2022/05/13 11:37:54;;;;;;;;;;;20.20;57.10;;;;;;5053484;28;19913;-63
2022/05/13 11:40:32;;;;;;;;;;;20.40;57.10;;;;;;5054739;28;19966;-62
2022/05/13 11:43:18;;;;;;;;;;;20.50;57.40;;;;;;5054588;28;20001;-63
2022/05/13 11:45:47;;;;;;;;;;;20.70;56.90;;;;;;5070156;28;19951;-63
2022/05/13 11:48:19;;;;;;;;;;;20.70;57.10;;;;;;5052634;28;20011;-63
2022/05/13 11:50:45;;;;;;;;;;;20.80;57.20;;;;;;5051979;28;19916;-63
2022/05/13 11:53:10;;;;;;;;;;;20.80;56.90;;;;;;5053283;28;19909;-63
2022/05/13 11:55:36;;;;;;;;;;;21.00;56.40;;;;;;5052852;28;19908;-62
2022/05/13 11:58:01;;;;;;;;;;;21.20;56.10;;;;;;5054233;28;20050;-62
2022/05/13 12:00:36;;;;;;;;;;;21.30;55.60;;;;;;5052480;28;19919;-62
2022/05/13 12:03:03;;;;;;;;;;;21.30;55.50;;;;;;5052718;28;19905;-64
2022/05/13 12:05:31;;;;;;;;;;;21.20;55.60;;;;;;5052387;28;19912;-63
2022/05/13 12:08:09;;;;;;;;;;;21.20;55.80;;;;;;5052692;28;19909;-63
2022/05/13 12:10:53;;;;;;;;;;;21.20;55.60;;;;;;5051728;28;19904;-63
2022/05/13 12:13:24;;;;;;;;;;;21.10;54.70;;;;;;5051605;28;20272;-63
2022/05/13 12:16:10;;;;;;;;;;;21.00;54.30;;;;;;5052483;28;20253;-64
2022/05/13 12:18:41;;;;;;;;;;;21.00;54.60;;;;;;5047578;28;19912;-63
2022/05/13 12:21:07;;;;;;;;;;;21.10;54.60;;;;;;5053806;28;20316;-63
2022/05/13 12:23:51;;;;;;;;;;;21.10;54.10;;;;;;5051600;28;19923;-63
2022/05/13 12:26:20;;;;;;;;;;;21.00;54.60;;;;;;5051477;28;20885;-63
2022/05/13 12:29:00;;;;;;;;;;;21.00;55.50;;;;;;5052557;28;20047;-64
2022/05/13 12:31:45;;;;;;;;;;;21.10;55.30;;;;;;5052875;28;19943;-63
2022/05/13 12:39:59;;;;;;;;;;;21.60;53.40;;;;;;5053643;28;19915;-63
2022/05/13 12:42:39;;;;;;;;;;;21.70;53.20;;;;;;5067359;28;19920;-63
2022/05/13 12:45:08;;;;;;;;;;;21.80;53.20;;;;;;5051712;28;19905;-63
2022/05/13 12:47:56;;;;;;;;;;;22.00;53.10;;;;;;5051694;28;19912;-63
2022/05/13 12:50:25;;;;;;;;;;;22.10;52.80;;;;;;5052209;28;19936;-63
2022/05/13 12:52:50;;;;;;;;;;;22.20;52.20;;;;;;5051888;28;19959;-63
2022/05/13 12:55:18;;;;;;;;;;;22.10;51.70;;;;;;5053534;28;19909;-63
2022/05/13 12:57:47;;;;;;;;;;;22.00;51.70;;;;;;5052653;28;19952;-63
2022/05/13 13:00:23;;;;;;;;;;;21.90;51.50;;;;;;5051597;28;19905;-63
2022/05/13 13:02:51;;;;;;;;;;;22.00;52.10;;;;;;5051476;28;19948;-64
2022/05/13 13:05:30;;;;;;;;;;;22.20;52.20;;;;;;5050836;28;19921;-63
2022/05/13 13:08:04;;;;;;;;;;;22.40;51.30;;;;;;5051615;28;20835;-63
2022/05/13 13:10:30;;;;;;;;;;;22.40;51.40;;;;;;5051617;28;19915;-66
2022/05/13 13:13:00;;;;;;;;;;;22.40;50.20;;;;;;5051521;28;19909;-63
2022/05/13 13:15:28;;;;;;;;;;;22.30;50.00;;;;;;5050260;28;19909;-63
2022/05/13 13:17:55;;;;;;;;;;;22.50;49.90;;;;;;5050231;28;19947;-63
2022/05/13 13:20:22;;;;;;;;;;;22.60;49.70;;;;;;5050088;28;19921;-63
2022/05/13 13:22:49;;;;;;;;;;;22.70;49.80;;;;;;5051250;28;20319;-63
2022/05/13 13:25:18;;;;;;;;;;;22.90;49.60;;;;;;5050358;28;19908;-63
2022/05/13 13:27:43;;;;;;;;;;;23.10;49.70;;;;;;5051139;28;20406;-63
2022/05/13 13:30:15;;;;;;;;;;;23.20;49.60;;;;;;5049553;28;20003;-63
2022/05/13 13:32:44;;;;;;;;;;;23.30;49.20;;;;;;5048774;28;20265;-63
2022/05/13 13:35:10;;;;;;;;;;;23.30;49.50;;;;;;5050957;28;19908;-63
2022/05/13 13:37:37;;;;;;;;;;;23.20;48.90;;;;;;5052368;28;19916;-63
2022/05/13 13:40:12;;;;;;;;;;;23.30;48.70;;;;;;5052837;28;19940;-63
2022/05/13 13:42:38;;;;;;;;;;;23.30;48.50;;;;;;5052756;28;19987;-63
2022/05/13 13:45:10;;;;;;;;;;;23.40;48.40;;;;;;5052419;28;19905;-63
2022/05/13 13:47:39;;;;;;;;;;;23.20;47.70;;;;;;5052642;28;19904;-64
2022/05/13 13:50:06;;;;;;;;;;;23.10;48.00;;;;;;5052390;28;19904;-63
2022/05/13 13:52:39;;;;;;;;;;;23.20;48.40;;;;;;5051563;28;19912;-63
2022/05/13 13:55:23;;;;;;;;;;;23.30;47.90;;;;;;5052457;28;19912;-63
2022/05/13 13:58:08;;;;;;;;;;;23.40;47.80;;;;;;5052328;28;19908;-64
2022/05/13 14:00:36;;;;;;;;;;;23.30;47.30;;;;;;5050883;28;19909;-63
2022/05/13 14:03:08;;;;;;;;;;;23.20;48.10;;;;;;5052588;28;19905;-63
2022/05/13 14:05:49;;;;;;;;;;;23.20;48.00;;;;;;5052300;28;19905;-63
2022/05/13 14:08:15;;;;;;;;;;;23.20;48.20;;;;;;5052308;28;19950;-63
2022/05/13 14:10:43;;;;;;;;;;;23.40;48.00;;;;;;5052419;28;20321;-63
2022/05/13 14:13:10;;;;;;;;;;;23.50;47.40;;;;;;5052162;28;19908;-63
2022/05/13 14:15:39;;;;;;;;;;;23.60;46.80;;;;;;5051652;28;20379;-64
2022/05/13 14:18:06;;;;;;;;;;;23.70;46.60;;;;;;5056178;28;19908;-64
2022/05/13 14:20:36;;;;;;;;;;;23.80;46.80;;;;;;5056078;28;19962;-63
2022/05/13 14:23:05;;;;;;;;;;;23.90;46.90;;;;;;5056290;28;19909;-63
2022/05/13 14:25:32;;;;;;;;;;;24.10;46.80;;;;;;5054594;28;19909;-63
2022/05/13 14:27:58;;;;;;;;;;;24.20;47.00;;;;;;5056323;28;19909;-64
2022/05/13 14:30:30;;;;;;;;;;;24.20;47.40;;;;;;5056262;28;19995;-63
2022/05/13 14:32:55;;;;;;;;;;;24.20;47.30;;;;;;5056121;28;19909;-64
2022/05/13 14:35:31;;;;;;;;;;;24.10;46.80;;;;;;5055863;28;19954;-64
2022/05/13 14:37:59;;;;;;;;;;;24.10;46.80;;;;;;5055702;28;20364;-64
2022/05/13 14:40:26;;;;;;;;;;;24.10;46.60;;;;;;5056091;28;19905;-63
2022/05/13 14:42:54;;;;;;;;;;;24.10;46.40;;;;;;5055849;28;19905;-64
2022/05/13 14:45:23;;;;;;;;;;;24.10;46.20;;;;;;5055652;28;20410;-64
2022/05/13 14:47:49;;;;;;;;;;;24.10;46.20;;;;;;5055760;28;19919;-64
2022/05/13 14:50:30;;;;;;;;;;;24.00;46.80;;;;;;5055707;28;20422;-64
2022/05/13 14:52:55;;;;;;;;;;;24.10;46.50;;;;;;5055565;28;19904;-63
2022/05/13 14:55:33;;;;;;;;;;;24.30;46.20;;;;;;5055546;28;20272;-64
2022/05/13 14:57:59;;;;;;;;;;;24.30;46.40;;;;;;5055644;28;19908;-63
2022/05/13 15:00:29;;;;;;;;;;;24.20;46.40;;;;;;5055454;28;20327;-64
2022/05/13 15:02:54;;;;;;;;;;;24.10;46.90;;;;;;5055354;28;19988;-64
2022/05/13 15:05:20;;;;;;;;;;;24.20;46.90;;;;;;5054512;28;20003;-64